sensor_id;sensor_type;location;lat;lon;timestamp;P1;durP1;ratioP1;P2;durP2;ratioP2
4756;SDS011;2392;52.578;13.426;2023-02-15T00:00:00;31.43;;;19.37;;
4756;SDS011;2392;52.578;13.426;2023-02-15T00:02:31;33.37;;;19.00;;
4756;SDS011;2392;52.578;13.426;2023-02-15T00:05:06;30.70;;;20.23;;
4756;SDS011;2392;52.578;13.426;2023-02-15T00:07:33;28.50;;;19.90;;
4756;SDS011;2392;52.578;13.426;2023-02-15T00:10:00;32.47;;;19.20;;
4756;SDS011;2392;52.578;13.426;2023-02-15T00:12:29;34.23;;;18.90;;
4756;SDS011;2392;52.578;13.426;2023-02-15T00:14:56;34.53;;;18.73;;
4756;SDS011;2392;52.578;13.426;2023-02-15T00:17:23;30.93;;;18.87;;
4756;SDS011;2392;52.578;13.426;2023-02-15T00:19:50;31.67;;;18.80;;
4756;SDS011;2392;52.578;13.426;2023-02-15T00:22:18;31.30;;;19.33;;
4756;SDS011;2392;52.578;13.426;2023-02-15T00:24:46;31.10;;;19.73;;
4756;SDS011;2392;52.578;13.426;2023-02-15T00:27:13;31.00;;;20.10;;
4756;SDS011;2392;52.578;13.426;2023-02-15T00:29:40;31.00;;;18.60;;
4756;SDS011;2392;52.578;13.426;2023-02-15T00:32:10;31.33;;;18.70;;
4756;SDS011;2392;52.578;13.426;2023-02-15T00:34:37;32.67;;;19.67;;
4756;SDS011;2392;52.578;13.426;2023-02-15T00:37:04;34.23;;;19.83;;
4756;SDS011;2392;52.578;13.426;2023-02-15T00:39:32;27.90;;;18.27;;
4756;SDS011;2392;52.578;13.426;2023-02-15T00:41:59;31.53;;;18.03;;
4756;SDS011;2392;52.578;13.426;2023-02-15T00:44:26;30.60;;;18.53;;
4756;SDS011;2392;52.578;13.426;2023-02-15T00:46:55;40.90;;;18.87;;
4756;SDS011;2392;52.578;13.426;2023-02-15T00:49:22;33.70;;;20.60;;
4756;SDS011;2392;52.578;13.426;2023-02-15T00:51:49;34.00;;;21.33;;
4756;SDS011;2392;52.578;13.426;2023-02-15T00:54:16;32.33;;;20.33;;
4756;SDS011;2392;52.578;13.426;2023-02-15T00:56:45;37.20;;;20.80;;
4756;SDS011;2392;52.578;13.426;2023-02-15T00:59:12;30.70;;;19.90;;
4756;SDS011;2392;52.578;13.426;2023-02-15T01:01:39;34.10;;;21.77;;
4756;SDS011;2392;52.578;13.426;2023-02-15T01:04:06;35.97;;;20.97;;
4756;SDS011;2392;52.578;13.426;2023-02-15T01:06:33;34.30;;;21.23;;
4756;SDS011;2392;52.578;13.426;2023-02-15T01:09:00;29.97;;;19.13;;
4756;SDS011;2392;52.578;13.426;2023-02-15T01:11:28;34.07;;;19.33;;
4756;SDS011;2392;52.578;13.426;2023-02-15T01:13:58;32.60;;;19.90;;
4756;SDS011;2392;52.578;13.426;2023-02-15T01:16:26;38.17;;;21.60;;
4756;SDS011;2392;52.578;13.426;2023-02-15T01:18:54;31.17;;;19.07;;
4756;SDS011;2392;52.578;13.426;2023-02-15T01:21:22;36.53;;;21.17;;
4756;SDS011;2392;52.578;13.426;2023-02-15T01:23:50;32.13;;;20.80;;
4756;SDS011;2392;52.578;13.426;2023-02-15T01:26:17;33.73;;;19.73;;
4756;SDS011;2392;52.578;13.426;2023-02-15T01:28:44;37.73;;;21.00;;
4756;SDS011;2392;52.578;13.426;2023-02-15T01:31:14;33.30;;;19.80;;
4756;SDS011;2392;52.578;13.426;2023-02-15T01:33:44;41.07;;;20.53;;
4756;SDS011;2392;52.578;13.426;2023-02-15T01:36:11;33.60;;;19.23;;
4756;SDS011;2392;52.578;13.426;2023-02-15T01:38:38;35.03;;;21.20;;
4756;SDS011;2392;52.578;13.426;2023-02-15T01:41:06;32.80;;;18.63;;
4756;SDS011;2392;52.578;13.426;2023-02-15T01:43:53;34.87;;;19.47;;
4756;SDS011;2392;52.578;13.426;2023-02-15T01:46:24;35.90;;;22.33;;
4756;SDS011;2392;52.578;13.426;2023-02-15T01:48:55;33.50;;;19.83;;
4756;SDS011;2392;52.578;13.426;2023-02-15T01:51:27;38.97;;;21.70;;
4756;SDS011;2392;52.578;13.426;2023-02-15T01:53:57;38.20;;;21.70;;
4756;SDS011;2392;52.578;13.426;2023-02-15T01:56:29;37.23;;;20.57;;
4756;SDS011;2392;52.578;13.426;2023-02-15T01:59:00;35.70;;;20.43;;
4756;SDS011;2392;52.578;13.426;2023-02-15T02:01:32;38.53;;;20.70;;
4756;SDS011;2392;52.578;13.426;2023-02-15T02:04:00;40.00;;;21.57;;
4756;SDS011;2392;52.578;13.426;2023-02-15T02:06:33;35.40;;;22.03;;
4756;SDS011;2392;52.578;13.426;2023-02-15T02:09:05;34.43;;;21.83;;
4756;SDS011;2392;52.578;13.426;2023-02-15T02:11:32;35.27;;;21.17;;
4756;SDS011;2392;52.578;13.426;2023-02-15T02:14:00;34.97;;;19.83;;
4756;SDS011;2392;52.578;13.426;2023-02-15T02:16:28;41.53;;;21.23;;
4756;SDS011;2392;52.578;13.426;2023-02-15T02:25:34;33.30;;;19.33;;
4756;SDS011;2392;52.578;13.426;2023-02-15T02:28:25;29.73;;;18.80;;
4756;SDS011;2392;52.578;13.426;2023-02-15T02:31:24;33.80;;;19.50;;
4756;SDS011;2392;52.578;13.426;2023-02-15T02:34:07;37.20;;;20.40;;
4756;SDS011;2392;52.578;13.426;2023-02-15T02:36:40;35.07;;;20.47;;
4756;SDS011;2392;52.578;13.426;2023-02-15T02:39:18;36.43;;;19.87;;
4756;SDS011;2392;52.578;13.426;2023-02-15T02:41:55;36.70;;;20.07;;
4756;SDS011;2392;52.578;13.426;2023-02-15T02:44:29;39.70;;;21.73;;
4756;SDS011;2392;52.578;13.426;2023-02-15T02:47:02;37.83;;;21.10;;
4756;SDS011;2392;52.578;13.426;2023-02-15T02:49:36;36.53;;;20.10;;
4756;SDS011;2392;52.578;13.426;2023-02-15T02:52:06;37.83;;;22.37;;
4756;SDS011;2392;52.578;13.426;2023-02-15T02:54:55;40.37;;;21.47;;
4756;SDS011;2392;52.578;13.426;2023-02-15T02:57:23;31.77;;;20.70;;
4756;SDS011;2392;52.578;13.426;2023-02-15T02:59:51;38.13;;;21.43;;
4756;SDS011;2392;52.578;13.426;2023-02-15T03:02:20;40.70;;;20.97;;
4756;SDS011;2392;52.578;13.426;2023-02-15T03:04:53;37.47;;;22.83;;
4756;SDS011;2392;52.578;13.426;2023-02-15T03:07:29;35.73;;;22.03;;
4756;SDS011;2392;52.578;13.426;2023-02-15T03:09:59;34.83;;;21.07;;
4756;SDS011;2392;52.578;13.426;2023-02-15T03:12:28;39.23;;;19.80;;
4756;SDS011;2392;52.578;13.426;2023-02-15T03:14:59;38.33;;;21.47;;
4756;SDS011;2392;52.578;13.426;2023-02-15T03:17:30;33.37;;;19.47;;
4756;SDS011;2392;52.578;13.426;2023-02-15T03:20:02;39.70;;;21.67;;
4756;SDS011;2392;52.578;13.426;2023-02-15T03:22:37;42.00;;;22.70;;
4756;SDS011;2392;52.578;13.426;2023-02-15T03:25:12;39.90;;;22.63;;
4756;SDS011;2392;52.578;13.426;2023-02-15T03:27:44;41.33;;;22.80;;
4756;SDS011;2392;52.578;13.426;2023-02-15T03:30:13;42.70;;;23.20;;
4756;SDS011;2392;52.578;13.426;2023-02-15T03:32:44;44.67;;;22.50;;
4756;SDS011;2392;52.578;13.426;2023-02-15T03:35:15;44.60;;;24.00;;
4756;SDS011;2392;52.578;13.426;2023-02-15T03:37:43;43.23;;;23.40;;
4756;SDS011;2392;52.578;13.426;2023-02-15T03:40:15;51.60;;;24.10;;
4756;SDS011;2392;52.578;13.426;2023-02-15T03:43:04;48.17;;;23.90;;
4756;SDS011;2392;52.578;13.426;2023-02-15T03:45:38;46.87;;;22.90;;
4756;SDS011;2392;52.578;13.426;2023-02-15T03:48:20;46.23;;;24.00;;
4756;SDS011;2392;52.578;13.426;2023-02-15T03:50:52;43.60;;;23.07;;
4756;SDS011;2392;52.578;13.426;2023-02-15T03:53:39;43.20;;;22.37;;
4756;SDS011;2392;52.578;13.426;2023-02-15T03:56:07;44.37;;;25.40;;
4756;SDS011;2392;52.578;13.426;2023-02-15T03:58:34;40.50;;;21.90;;
4756;SDS011;2392;52.578;13.426;2023-02-15T04:01:20;54.93;;;25.67;;
4756;SDS011;2392;52.578;13.426;2023-02-15T04:04:11;47.63;;;24.20;;
4756;SDS011;2392;52.578;13.426;2023-02-15T04:06:44;44.40;;;24.60;;
4756;SDS011;2392;52.578;13.426;2023-02-15T04:09:11;49.47;;;25.50;;
4756;SDS011;2392;52.578;13.426;2023-02-15T04:11:55;49.57;;;26.03;;
4756;SDS011;2392;52.578;13.426;2023-02-15T04:14:22;42.13;;;22.80;;
4756;SDS011;2392;52.578;13.426;2023-02-15T04:17:07;55.13;;;25.60;;
4756;SDS011;2392;52.578;13.426;2023-02-15T04:19:35;50.17;;;24.37;;
4756;SDS011;2392;52.578;13.426;2023-02-15T04:22:21;51.53;;;25.40;;
4756;SDS011;2392;52.578;13.426;2023-02-15T04:25:05;50.23;;;24.00;;
4756;SDS011;2392;52.578;13.426;2023-02-15T04:27:38;51.30;;;26.00;;
4756;SDS011;2392;52.578;13.426;2023-02-15T04:30:09;62.00;;;28.40;;
4756;SDS011;2392;52.578;13.426;2023-02-15T04:32:37;54.47;;;26.97;;
4756;SDS011;2392;52.578;13.426;2023-02-15T04:35:05;44.97;;;25.20;;
4756;SDS011;2392;52.578;13.426;2023-02-15T04:37:34;48.27;;;24.80;;
4756;SDS011;2392;52.578;13.426;2023-02-15T04:40:01;52.17;;;26.47;;
4756;SDS011;2392;52.578;13.426;2023-02-15T04:42:28;54.27;;;26.40;;
4756;SDS011;2392;52.578;13.426;2023-02-15T04:44:55;49.10;;;25.30;;
4756;SDS011;2392;52.578;13.426;2023-02-15T04:47:22;51.50;;;25.97;;
4756;SDS011;2392;52.578;13.426;2023-02-15T04:49:49;61.27;;;28.30;;
4756;SDS011;2392;52.578;13.426;2023-02-15T04:52:16;55.40;;;27.17;;
4756;SDS011;2392;52.578;13.426;2023-02-15T04:54:44;60.43;;;25.73;;
4756;SDS011;2392;52.578;13.426;2023-02-15T04:57:12;55.50;;;28.70;;
4756;SDS011;2392;52.578;13.426;2023-02-15T04:59:39;52.70;;;27.70;;
4756;SDS011;2392;52.578;13.426;2023-02-15T05:02:06;54.50;;;27.03;;
4756;SDS011;2392;52.578;13.426;2023-02-15T05:04:34;54.20;;;25.97;;
4756;SDS011;2392;52.578;13.426;2023-02-15T05:07:01;56.07;;;25.07;;
4756;SDS011;2392;52.578;13.426;2023-02-15T05:09:28;52.80;;;26.03;;
4756;SDS011;2392;52.578;13.426;2023-02-15T05:11:56;53.37;;;28.50;;
4756;SDS011;2392;52.578;13.426;2023-02-15T05:14:23;53.77;;;26.00;;
4756;SDS011;2392;52.578;13.426;2023-02-15T05:16:50;50.30;;;25.27;;
4756;SDS011;2392;52.578;13.426;2023-02-15T05:19:19;54.17;;;28.23;;
4756;SDS011;2392;52.578;13.426;2023-02-15T05:21:46;54.40;;;26.70;;
4756;SDS011;2392;52.578;13.426;2023-02-15T05:24:13;49.00;;;25.20;;
4756;SDS011;2392;52.578;13.426;2023-02-15T05:26:59;50.70;;;25.63;;
4756;SDS011;2392;52.578;13.426;2023-02-15T05:29:43;52.77;;;26.77;;
4756;SDS011;2392;52.578;13.426;2023-02-15T05:32:12;56.27;;;28.40;;
4756;SDS011;2392;52.578;13.426;2023-02-15T05:34:39;62.53;;;28.50;;
4756;SDS011;2392;52.578;13.426;2023-02-15T05:37:06;59.40;;;26.27;;
4756;SDS011;2392;52.578;13.426;2023-02-15T05:39:33;52.27;;;26.40;;
4756;SDS011;2392;52.578;13.426;2023-02-15T05:42:02;62.33;;;25.97;;
4756;SDS011;2392;52.578;13.426;2023-02-15T05:44:29;54.80;;;27.63;;
4756;SDS011;2392;52.578;13.426;2023-02-15T05:46:56;54.37;;;25.57;;
4756;SDS011;2392;52.578;13.426;2023-02-15T05:49:23;55.03;;;25.63;;
4756;SDS011;2392;52.578;13.426;2023-02-15T05:51:50;50.70;;;26.53;;
4756;SDS011;2392;52.578;13.426;2023-02-15T05:54:16;49.33;;;25.53;;
4756;SDS011;2392;52.578;13.426;2023-02-15T05:56:44;57.90;;;26.67;;
4756;SDS011;2392;52.578;13.426;2023-02-15T05:59:12;55.70;;;27.30;;
4756;SDS011;2392;52.578;13.426;2023-02-15T06:01:39;62.33;;;27.33;;
4756;SDS011;2392;52.578;13.426;2023-02-15T06:04:06;50.90;;;27.33;;
4756;SDS011;2392;52.578;13.426;2023-02-15T06:06:33;50.40;;;26.03;;
4756;SDS011;2392;52.578;13.426;2023-02-15T06:09:00;59.77;;;27.40;;
4756;SDS011;2392;52.578;13.426;2023-02-15T06:11:27;65.67;;;28.43;;
4756;SDS011;2392;52.578;13.426;2023-02-15T06:13:54;56.67;;;29.23;;
4756;SDS011;2392;52.578;13.426;2023-02-15T06:16:23;58.47;;;28.87;;
4756;SDS011;2392;52.578;13.426;2023-02-15T06:18:50;58.77;;;27.50;;
4756;SDS011;2392;52.578;13.426;2023-02-15T06:21:17;65.50;;;31.80;;
4756;SDS011;2392;52.578;13.426;2023-02-15T06:23:45;59.27;;;29.37;;
4756;SDS011;2392;52.578;13.426;2023-02-15T06:26:12;60.43;;;28.23;;
4756;SDS011;2392;52.578;13.426;2023-02-15T06:28:38;57.90;;;28.80;;
4756;SDS011;2392;52.578;13.426;2023-02-15T06:31:06;65.80;;;30.03;;
4756;SDS011;2392;52.578;13.426;2023-02-15T06:33:34;63.57;;;31.40;;
4756;SDS011;2392;52.578;13.426;2023-02-15T06:36:01;68.47;;;29.00;;
4756;SDS011;2392;52.578;13.426;2023-02-15T06:38:29;66.43;;;31.37;;
4756;SDS011;2392;52.578;13.426;2023-02-15T06:40:57;69.80;;;31.77;;
4756;SDS011;2392;52.578;13.426;2023-02-15T06:43:24;64.90;;;29.53;;
4756;SDS011;2392;52.578;13.426;2023-02-15T06:45:51;56.47;;;28.00;;
4756;SDS011;2392;52.578;13.426;2023-02-15T06:48:18;66.00;;;30.17;;
4756;SDS011;2392;52.578;13.426;2023-02-15T06:50:46;66.30;;;30.20;;
4756;SDS011;2392;52.578;13.426;2023-02-15T06:53:14;63.37;;;29.47;;
4756;SDS011;2392;52.578;13.426;2023-02-15T06:55:41;71.37;;;31.17;;
4756;SDS011;2392;52.578;13.426;2023-02-15T06:58:08;79.80;;;31.27;;
4756;SDS011;2392;52.578;13.426;2023-02-15T07:00:35;72.43;;;29.60;;
4756;SDS011;2392;52.578;13.426;2023-02-15T07:03:02;65.37;;;30.80;;
4756;SDS011;2392;52.578;13.426;2023-02-15T07:05:32;71.73;;;31.50;;
4756;SDS011;2392;52.578;13.426;2023-02-15T07:08:01;61.20;;;28.37;;
4756;SDS011;2392;52.578;13.426;2023-02-15T07:10:28;70.53;;;29.83;;
4756;SDS011;2392;52.578;13.426;2023-02-15T07:12:55;63.70;;;30.93;;
4756;SDS011;2392;52.578;13.426;2023-02-15T07:15:21;70.47;;;29.87;;
4756;SDS011;2392;52.578;13.426;2023-02-15T07:17:49;62.30;;;29.73;;
4756;SDS011;2392;52.578;13.426;2023-02-15T07:20:17;59.83;;;27.97;;
4756;SDS011;2392;52.578;13.426;2023-02-15T07:22:46;66.33;;;29.80;;
4756;SDS011;2392;52.578;13.426;2023-02-15T07:25:16;67.17;;;29.80;;
4756;SDS011;2392;52.578;13.426;2023-02-15T07:27:43;58.37;;;26.70;;
4756;SDS011;2392;52.578;13.426;2023-02-15T07:30:11;58.10;;;26.30;;
4756;SDS011;2392;52.578;13.426;2023-02-15T07:32:40;64.50;;;29.57;;
4756;SDS011;2392;52.578;13.426;2023-02-15T07:35:22;69.97;;;26.23;;
4756;SDS011;2392;52.578;13.426;2023-02-15T07:37:50;69.40;;;24.67;;
4756;SDS011;2392;52.578;13.426;2023-02-15T07:40:19;63.03;;;27.10;;
4756;SDS011;2392;52.578;13.426;2023-02-15T07:42:50;68.73;;;27.33;;
4756;SDS011;2392;52.578;13.426;2023-02-15T07:45:20;65.83;;;28.90;;
4756;SDS011;2392;52.578;13.426;2023-02-15T07:47:47;63.23;;;27.93;;
4756;SDS011;2392;52.578;13.426;2023-02-15T07:50:14;65.47;;;31.50;;
4756;SDS011;2392;52.578;13.426;2023-02-15T07:52:41;70.43;;;30.10;;
4756;SDS011;2392;52.578;13.426;2023-02-15T07:55:08;68.83;;;30.10;;
4756;SDS011;2392;52.578;13.426;2023-02-15T07:57:42;64.47;;;30.57;;
4756;SDS011;2392;52.578;13.426;2023-02-15T08:00:10;72.17;;;29.03;;
4756;SDS011;2392;52.578;13.426;2023-02-15T08:02:38;62.47;;;27.00;;
4756;SDS011;2392;52.578;13.426;2023-02-15T08:05:05;65.73;;;27.87;;
4756;SDS011;2392;52.578;13.426;2023-02-15T08:07:33;66.67;;;29.67;;
4756;SDS011;2392;52.578;13.426;2023-02-15T08:10:00;80.10;;;29.50;;
4756;SDS011;2392;52.578;13.426;2023-02-15T08:12:27;63.17;;;30.03;;
4756;SDS011;2392;52.578;13.426;2023-02-15T08:14:55;68.90;;;28.33;;
4756;SDS011;2392;52.578;13.426;2023-02-15T08:17:22;71.57;;;28.87;;
4756;SDS011;2392;52.578;13.426;2023-02-15T08:19:49;63.00;;;28.93;;
4756;SDS011;2392;52.578;13.426;2023-02-15T08:22:16;63.03;;;28.40;;
4756;SDS011;2392;52.578;13.426;2023-02-15T08:24:43;75.90;;;30.63;;
4756;SDS011;2392;52.578;13.426;2023-02-15T08:27:10;66.13;;;29.47;;
4756;SDS011;2392;52.578;13.426;2023-02-15T08:29:38;65.13;;;27.80;;
4756;SDS011;2392;52.578;13.426;2023-02-15T08:32:09;71.73;;;28.50;;
4756;SDS011;2392;52.578;13.426;2023-02-15T08:34:38;81.23;;;31.10;;
4756;SDS011;2392;52.578;13.426;2023-02-15T08:37:06;73.87;;;31.20;;
4756;SDS011;2392;52.578;13.426;2023-02-15T08:39:34;71.67;;;31.60;;
4756;SDS011;2392;52.578;13.426;2023-02-15T08:42:01;71.53;;;29.67;;
4756;SDS011;2392;52.578;13.426;2023-02-15T08:44:29;74.97;;;31.87;;
4756;SDS011;2392;52.578;13.426;2023-02-15T08:46:56;60.53;;;27.73;;
4756;SDS011;2392;52.578;13.426;2023-02-15T08:49:29;73.30;;;31.00;;
4756;SDS011;2392;52.578;13.426;2023-02-15T08:51:56;64.17;;;29.53;;
4756;SDS011;2392;52.578;13.426;2023-02-15T08:54:23;64.77;;;28.73;;
4756;SDS011;2392;52.578;13.426;2023-02-15T08:56:50;66.60;;;30.70;;
4756;SDS011;2392;52.578;13.426;2023-02-15T08:59:18;65.63;;;30.17;;
4756;SDS011;2392;52.578;13.426;2023-02-15T09:01:46;66.77;;;29.90;;
4756;SDS011;2392;52.578;13.426;2023-02-15T09:04:15;66.93;;;30.63;;
4756;SDS011;2392;52.578;13.426;2023-02-15T09:06:44;72.10;;;32.10;;
4756;SDS011;2392;52.578;13.426;2023-02-15T09:09:13;74.47;;;33.40;;
4756;SDS011;2392;52.578;13.426;2023-02-15T09:11:41;72.00;;;31.20;;
4756;SDS011;2392;52.578;13.426;2023-02-15T09:14:10;69.77;;;30.07;;
4756;SDS011;2392;52.578;13.426;2023-02-15T09:16:39;69.70;;;30.60;;
4756;SDS011;2392;52.578;13.426;2023-02-15T09:19:09;66.70;;;30.70;;
4756;SDS011;2392;52.578;13.426;2023-02-15T09:21:37;67.97;;;29.20;;
4756;SDS011;2392;52.578;13.426;2023-02-15T09:24:07;70.60;;;28.87;;
4756;SDS011;2392;52.578;13.426;2023-02-15T09:26:39;58.60;;;30.67;;
4756;SDS011;2392;52.578;13.426;2023-02-15T09:29:08;64.53;;;30.53;;
4756;SDS011;2392;52.578;13.426;2023-02-15T09:31:37;57.70;;;27.37;;
4756;SDS011;2392;52.578;13.426;2023-02-15T09:34:07;58.57;;;27.00;;
4756;SDS011;2392;52.578;13.426;2023-02-15T09:36:36;53.40;;;28.23;;
4756;SDS011;2392;52.578;13.426;2023-02-15T09:39:13;58.77;;;28.87;;
4756;SDS011;2392;52.578;13.426;2023-02-15T09:41:48;59.97;;;28.57;;
4756;SDS011;2392;52.578;13.426;2023-02-15T09:44:38;58.67;;;28.23;;
4756;SDS011;2392;52.578;13.426;2023-02-15T09:47:20;65.77;;;30.20;;
4756;SDS011;2392;52.578;13.426;2023-02-15T09:50:05;59.40;;;28.40;;
4756;SDS011;2392;52.578;13.426;2023-02-15T09:52:45;59.13;;;28.40;;
4756;SDS011;2392;52.578;13.426;2023-02-15T09:55:31;50.53;;;27.77;;
4756;SDS011;2392;52.578;13.426;2023-02-15T09:58:12;57.07;;;28.20;;
4756;SDS011;2392;52.578;13.426;2023-02-15T10:00:49;52.67;;;27.57;;
4756;SDS011;2392;52.578;13.426;2023-02-15T10:03:24;54.80;;;29.70;;
4756;SDS011;2392;52.578;13.426;2023-02-15T10:06:08;54.33;;;26.63;;
4756;SDS011;2392;52.578;13.426;2023-02-15T10:08:56;49.97;;;25.57;;
4756;SDS011;2392;52.578;13.426;2023-02-15T10:11:34;55.13;;;27.87;;
4756;SDS011;2392;52.578;13.426;2023-02-15T10:14:22;52.53;;;27.43;;
4756;SDS011;2392;52.578;13.426;2023-02-15T10:17:08;45.13;;;27.27;;
4756;SDS011;2392;52.578;13.426;2023-02-15T10:19:49;48.03;;;27.23;;
4756;SDS011;2392;52.578;13.426;2023-02-15T10:22:31;45.50;;;25.33;;
4756;SDS011;2392;52.578;13.426;2023-02-15T10:25:12;47.80;;;26.33;;
4756;SDS011;2392;52.578;13.426;2023-02-15T10:27:52;50.37;;;28.53;;
4756;SDS011;2392;52.578;13.426;2023-02-15T10:30:20;46.77;;;28.57;;
4756;SDS011;2392;52.578;13.426;2023-02-15T10:32:56;41.50;;;26.60;;
4756;SDS011;2392;52.578;13.426;2023-02-15T10:35:30;46.80;;;27.17;;
4756;SDS011;2392;52.578;13.426;2023-02-15T10:38:07;42.67;;;27.03;;
4756;SDS011;2392;52.578;13.426;2023-02-15T10:40:47;43.73;;;28.93;;
4756;SDS011;2392;52.578;13.426;2023-02-15T10:43:30;39.03;;;28.23;;
4756;SDS011;2392;52.578;13.426;2023-02-15T10:46:10;41.37;;;27.53;;
4756;SDS011;2392;52.578;13.426;2023-02-15T10:48:53;43.13;;;28.57;;
4756;SDS011;2392;52.578;13.426;2023-02-15T10:51:44;50.77;;;31.50;;
4756;SDS011;2392;52.578;13.426;2023-02-15T10:54:22;35.53;;;26.17;;
4756;SDS011;2392;52.578;13.426;2023-02-15T10:56:56;42.97;;;29.23;;
4756;SDS011;2392;52.578;13.426;2023-02-15T10:59:42;43.80;;;29.07;;
4756;SDS011;2392;52.578;13.426;2023-02-15T11:02:31;39.00;;;26.00;;
4756;SDS011;2392;52.578;13.426;2023-02-15T11:05:16;36.73;;;26.43;;
4756;SDS011;2392;52.578;13.426;2023-02-15T11:07:50;38.50;;;27.43;;
4756;SDS011;2392;52.578;13.426;2023-02-15T11:10:24;37.87;;;25.20;;
4756;SDS011;2392;52.578;13.426;2023-02-15T11:12:56;34.33;;;24.57;;
4756;SDS011;2392;52.578;13.426;2023-02-15T11:15:30;34.27;;;24.07;;
4756;SDS011;2392;52.578;13.426;2023-02-15T11:18:02;31.50;;;25.90;;
4756;SDS011;2392;52.578;13.426;2023-02-15T11:20:36;36.50;;;24.90;;
4756;SDS011;2392;52.578;13.426;2023-02-15T11:23:10;38.53;;;27.00;;
4756;SDS011;2392;52.578;13.426;2023-02-15T11:25:41;32.13;;;25.17;;
4756;SDS011;2392;52.578;13.426;2023-02-15T11:28:14;36.03;;;26.83;;
4756;SDS011;2392;52.578;13.426;2023-02-15T11:30:47;35.20;;;25.87;;
4756;SDS011;2392;52.578;13.426;2023-02-15T11:33:18;32.63;;;27.00;;
4756;SDS011;2392;52.578;13.426;2023-02-15T11:35:50;39.73;;;26.50;;
4756;SDS011;2392;52.578;13.426;2023-02-15T11:38:21;32.30;;;23.77;;
4756;SDS011;2392;52.578;13.426;2023-02-15T11:40:51;29.33;;;23.33;;
4756;SDS011;2392;52.578;13.426;2023-02-15T11:43:24;32.60;;;24.90;;
4756;SDS011;2392;52.578;13.426;2023-02-15T11:45:58;31.77;;;24.20;;
4756;SDS011;2392;52.578;13.426;2023-02-15T11:48:25;36.97;;;25.07;;
4756;SDS011;2392;52.578;13.426;2023-02-15T11:50:52;32.03;;;26.27;;
4756;SDS011;2392;52.578;13.426;2023-02-15T11:53:19;30.20;;;23.37;;
4756;SDS011;2392;52.578;13.426;2023-02-15T11:55:50;31.17;;;23.93;;
4756;SDS011;2392;52.578;13.426;2023-02-15T11:58:22;30.10;;;21.30;;
4756;SDS011;2392;52.578;13.426;2023-02-15T12:00:55;33.83;;;23.83;;
4756;SDS011;2392;52.578;13.426;2023-02-15T12:03:27;28.63;;;22.27;;
4756;SDS011;2392;52.578;13.426;2023-02-15T12:06:02;25.60;;;20.70;;
4756;SDS011;2392;52.578;13.426;2023-02-15T12:08:34;24.93;;;20.27;;
4756;SDS011;2392;52.578;13.426;2023-02-15T12:11:05;27.77;;;20.50;;
4756;SDS011;2392;52.578;13.426;2023-02-15T12:13:40;28.43;;;21.17;;
4756;SDS011;2392;52.578;13.426;2023-02-15T12:16:22;23.20;;;20.10;;
4756;SDS011;2392;52.578;13.426;2023-02-15T12:18:50;25.07;;;20.60;;
4756;SDS011;2392;52.578;13.426;2023-02-15T12:21:24;28.70;;;22.60;;
4756;SDS011;2392;52.578;13.426;2023-02-15T12:23:54;25.30;;;20.70;;
4756;SDS011;2392;52.578;13.426;2023-02-15T12:26:23;25.27;;;20.97;;
4756;SDS011;2392;52.578;13.426;2023-02-15T12:28:51;25.73;;;18.63;;
4756;SDS011;2392;52.578;13.426;2023-02-15T12:31:25;25.60;;;19.63;;
4756;SDS011;2392;52.578;13.426;2023-02-15T12:33:55;29.63;;;21.07;;
4756;SDS011;2392;52.578;13.426;2023-02-15T12:36:24;26.20;;;22.23;;
4756;SDS011;2392;52.578;13.426;2023-02-15T12:39:03;26.50;;;20.00;;
4756;SDS011;2392;52.578;13.426;2023-02-15T12:41:32;28.13;;;21.40;;
4756;SDS011;2392;52.578;13.426;2023-02-15T12:44:03;28.27;;;21.20;;
4756;SDS011;2392;52.578;13.426;2023-02-15T12:46:34;27.30;;;20.60;;
4756;SDS011;2392;52.578;13.426;2023-02-15T12:49:05;26.50;;;21.83;;
4756;SDS011;2392;52.578;13.426;2023-02-15T12:51:44;27.40;;;20.70;;
4756;SDS011;2392;52.578;13.426;2023-02-15T12:54:29;23.53;;;20.00;;
4756;SDS011;2392;52.578;13.426;2023-02-15T12:57:01;30.43;;;21.30;;
4756;SDS011;2392;52.578;13.426;2023-02-15T12:59:47;25.03;;;19.77;;
4756;SDS011;2392;52.578;13.426;2023-02-15T13:02:19;27.23;;;20.13;;
4756;SDS011;2392;52.578;13.426;2023-02-15T13:04:49;25.53;;;20.30;;
4756;SDS011;2392;52.578;13.426;2023-02-15T13:07:17;28.77;;;20.03;;
4756;SDS011;2392;52.578;13.426;2023-02-15T13:09:45;27.83;;;20.97;;
4756;SDS011;2392;52.578;13.426;2023-02-15T13:12:16;29.50;;;20.70;;
4756;SDS011;2392;52.578;13.426;2023-02-15T13:14:47;38.63;;;22.93;;
4756;SDS011;2392;52.578;13.426;2023-02-15T13:17:19;30.20;;;20.03;;
4756;SDS011;2392;52.578;13.426;2023-02-15T13:19:54;29.50;;;20.63;;
4756;SDS011;2392;52.578;13.426;2023-02-15T13:22:24;31.93;;;20.20;;
4756;SDS011;2392;52.578;13.426;2023-02-15T13:24:59;25.13;;;19.47;;
4756;SDS011;2392;52.578;13.426;2023-02-15T13:27:32;26.77;;;19.33;;
4756;SDS011;2392;52.578;13.426;2023-02-15T13:30:04;28.13;;;20.33;;
4756;SDS011;2392;52.578;13.426;2023-02-15T13:32:45;28.37;;;19.63;;
4756;SDS011;2392;52.578;13.426;2023-02-15T13:35:15;30.10;;;21.90;;
4756;SDS011;2392;52.578;13.426;2023-02-15T13:40:45;25.17;;;18.67;;
4756;SDS011;2392;52.578;13.426;2023-02-15T13:46:08;24.70;;;18.87;;
4756;SDS011;2392;52.578;13.426;2023-02-15T13:48:46;30.17;;;20.80;;
4756;SDS011;2392;52.578;13.426;2023-02-15T13:51:26;29.50;;;19.90;;
4756;SDS011;2392;52.578;13.426;2023-02-15T13:54:23;35.70;;;20.20;;
4756;SDS011;2392;52.578;13.426;2023-02-15T13:57:18;29.10;;;20.67;;
4756;SDS011;2392;52.578;13.426;2023-02-15T14:00:01;30.23;;;20.03;;
4756;SDS011;2392;52.578;13.426;2023-02-15T14:02:52;29.43;;;19.90;;
4756;SDS011;2392;52.578;13.426;2023-02-15T14:05:30;29.10;;;17.97;;
4756;SDS011;2392;52.578;13.426;2023-02-15T14:08:11;32.33;;;21.17;;
4756;SDS011;2392;52.578;13.426;2023-02-15T14:10:45;30.33;;;20.40;;
4756;SDS011;2392;52.578;13.426;2023-02-15T14:13:29;30.20;;;19.43;;
4756;SDS011;2392;52.578;13.426;2023-02-15T14:16:08;29.33;;;19.17;;
4756;SDS011;2392;52.578;13.426;2023-02-15T14:18:44;28.67;;;18.67;;
4756;SDS011;2392;52.578;13.426;2023-02-15T14:21:16;29.17;;;20.47;;
4756;SDS011;2392;52.578;13.426;2023-02-15T14:23:52;35.73;;;21.40;;
4756;SDS011;2392;52.578;13.426;2023-02-15T14:26:31;31.63;;;19.67;;
4756;SDS011;2392;52.578;13.426;2023-02-15T14:29:08;30.47;;;19.30;;
4756;SDS011;2392;52.578;13.426;2023-02-15T14:31:45;31.83;;;19.13;;
4756;SDS011;2392;52.578;13.426;2023-02-15T14:34:18;39.90;;;20.13;;
4756;SDS011;2392;52.578;13.426;2023-02-15T14:36:50;34.07;;;17.90;;
4756;SDS011;2392;52.578;13.426;2023-02-15T14:39:22;28.80;;;18.23;;
4756;SDS011;2392;52.578;13.426;2023-02-15T14:42:15;33.80;;;20.50;;
4756;SDS011;2392;52.578;13.426;2023-02-15T14:44:48;31.73;;;19.30;;
4756;SDS011;2392;52.578;13.426;2023-02-15T14:47:25;32.20;;;19.13;;
4756;SDS011;2392;52.578;13.426;2023-02-15T14:49:58;30.60;;;19.13;;
4756;SDS011;2392;52.578;13.426;2023-02-15T14:52:26;30.40;;;19.20;;
4756;SDS011;2392;52.578;13.426;2023-02-15T14:54:54;34.53;;;18.53;;
4756;SDS011;2392;52.578;13.426;2023-02-15T14:57:32;30.17;;;18.67;;
4756;SDS011;2392;52.578;13.426;2023-02-15T15:00:01;23.57;;;17.27;;
4756;SDS011;2392;52.578;13.426;2023-02-15T15:02:47;29.33;;;19.03;;
4756;SDS011;2392;52.578;13.426;2023-02-15T15:05:18;33.93;;;19.70;;
4756;SDS011;2392;52.578;13.426;2023-02-15T15:07:49;28.90;;;18.80;;
4756;SDS011;2392;52.578;13.426;2023-02-15T15:22:32;24.83;;;16.40;;
4756;SDS011;2392;52.578;13.426;2023-02-15T15:25:02;29.90;;;17.80;;